sensor_id;sensor_type;location;lat;lon;timestamp;P1;durP1;ratioP1;P2;durP2;ratioP2
68386;SDS011;55338;43.062;25.624;2022-12-22T00:02:44;40.97;;;14.15;;
68386;SDS011;55338;43.062;25.624;2022-12-22T00:05:28;28.75;;;10.55;;
68386;SDS011;55338;43.062;25.624;2022-12-22T00:08:13;39.33;;;14.90;;
68386;SDS011;55338;43.062;25.624;2022-12-22T00:10:57;45.47;;;15.10;;
68386;SDS011;55338;43.062;25.624;2022-12-22T00:13:43;43.05;;;17.20;;
68386;SDS011;55338;43.062;25.624;2022-12-22T00:16:30;56.65;;;17.60;;
68386;SDS011;55338;43.062;25.624;2022-12-22T00:19:16;40.80;;;15.02;;
68386;SDS011;55338;43.062;25.624;2022-12-22T00:22:06;53.88;;;17.65;;
68386;SDS011;55338;43.062;25.624;2022-12-22T00:24:55;49.67;;;16.07;;
68386;SDS011;55338;43.062;25.624;2022-12-22T00:27:40;30.70;;;11.63;;
68386;SDS011;55338;43.062;25.624;2022-12-22T00:30:24;41.47;;;13.30;;
68386;SDS011;55338;43.062;25.624;2022-12-22T00:33:09;35.13;;;11.77;;
68386;SDS011;55338;43.062;25.624;2022-12-22T00:35:56;38.35;;;11.85;;
68386;SDS011;55338;43.062;25.624;2022-12-22T00:38:41;23.00;;;8.00;;
68386;SDS011;55338;43.062;25.624;2022-12-22T00:41:25;33.45;;;10.77;;
68386;SDS011;55338;43.062;25.624;2022-12-22T00:44:09;39.60;;;12.43;;
68386;SDS011;55338;43.062;25.624;2022-12-22T00:46:53;28.85;;;11.23;;
68386;SDS011;55338;43.062;25.624;2022-12-22T00:49:39;37.72;;;12.00;;
68386;SDS011;55338;43.062;25.624;2022-12-22T00:52:27;30.00;;;10.07;;
68386;SDS011;55338;43.062;25.624;2022-12-22T00:55:12;33.15;;;11.52;;
68386;SDS011;55338;43.062;25.624;2022-12-22T00:57:58;40.70;;;12.50;;
68386;SDS011;55338;43.062;25.624;2022-12-22T01:00:42;32.08;;;10.13;;
68386;SDS011;55338;43.062;25.624;2022-12-22T01:03:26;31.60;;;10.70;;
68386;SDS011;55338;43.062;25.624;2022-12-22T01:06:10;37.17;;;11.60;;
68386;SDS011;55338;43.062;25.624;2022-12-22T01:08:55;34.40;;;11.20;;
68386;SDS011;55338;43.062;25.624;2022-12-22T01:11:40;33.65;;;10.98;;
68386;SDS011;55338;43.062;25.624;2022-12-22T01:14:24;42.17;;;13.60;;
68386;SDS011;55338;43.062;25.624;2022-12-22T01:17:08;41.05;;;13.48;;
68386;SDS011;55338;43.062;25.624;2022-12-22T01:19:53;40.30;;;11.37;;
68386;SDS011;55338;43.062;25.624;2022-12-22T01:22:37;39.35;;;13.05;;
68386;SDS011;55338;43.062;25.624;2022-12-22T01:25:21;44.15;;;13.65;;
68386;SDS011;55338;43.062;25.624;2022-12-22T01:28:08;35.70;;;13.57;;
68386;SDS011;55338;43.062;25.624;2022-12-22T01:30:57;43.28;;;14.00;;
68386;SDS011;55338;43.062;25.624;2022-12-22T01:34:04;45.67;;;12.93;;
68386;SDS011;55338;43.062;25.624;2022-12-22T01:36:48;38.03;;;11.43;;
68386;SDS011;55338;43.062;25.624;2022-12-22T01:39:32;44.15;;;12.90;;
68386;SDS011;55338;43.062;25.624;2022-12-22T01:42:16;35.72;;;12.77;;
68386;SDS011;55338;43.062;25.624;2022-12-22T01:45:04;35.28;;;13.75;;
68386;SDS011;55338;43.062;25.624;2022-12-22T01:48:02;48.47;;;14.67;;
68386;SDS011;55338;43.062;25.624;2022-12-22T01:50:46;39.90;;;13.95;;
68386;SDS011;55338;43.062;25.624;2022-12-22T01:53:30;42.40;;;14.65;;
68386;SDS011;55338;43.062;25.624;2022-12-22T01:56:14;46.05;;;14.38;;
68386;SDS011;55338;43.062;25.624;2022-12-22T01:58:59;40.78;;;13.35;;
68386;SDS011;55338;43.062;25.624;2022-12-22T02:01:46;51.10;;;14.57;;
68386;SDS011;55338;43.062;25.624;2022-12-22T02:04:31;44.80;;;14.73;;
68386;SDS011;55338;43.062;25.624;2022-12-22T02:16:24;43.10;;;13.90;;
68386;SDS011;55338;43.062;25.624;2022-12-22T02:25:20;53.20;;;16.00;;
68386;SDS011;55338;43.062;25.624;2022-12-22T02:28:11;41.70;;;13.45;;
68386;SDS011;55338;43.062;25.624;2022-12-22T02:30:56;34.23;;;11.47;;
68386;SDS011;55338;43.062;25.624;2022-12-22T02:33:41;38.58;;;11.57;;
68386;SDS011;55338;43.062;25.624;2022-12-22T02:42:33;34.53;;;11.20;;
68386;SDS011;55338;43.062;25.624;2022-12-22T02:45:45;29.90;;;10.53;;
68386;SDS011;55338;43.062;25.624;2022-12-22T02:48:44;42.38;;;10.98;;
68386;SDS011;55338;43.062;25.624;2022-12-22T02:51:34;33.33;;;10.43;;
68386;SDS011;55338;43.062;25.624;2022-12-22T02:54:23;33.50;;;10.93;;
68386;SDS011;55338;43.062;25.624;2022-12-22T02:57:08;27.15;;;9.05;;
68386;SDS011;55338;43.062;25.624;2022-12-22T02:59:53;24.40;;;8.47;;
68386;SDS011;55338;43.062;25.624;2022-12-22T03:02:37;26.55;;;9.90;;
68386;SDS011;55338;43.062;25.624;2022-12-22T03:05:22;30.38;;;9.75;;
68386;SDS011;55338;43.062;25.624;2022-12-22T03:08:06;16.58;;;7.32;;
68386;SDS011;55338;43.062;25.624;2022-12-22T03:10:50;32.70;;;8.75;;
68386;SDS011;55338;43.062;25.624;2022-12-22T03:13:34;29.07;;;8.90;;
68386;SDS011;55338;43.062;25.624;2022-12-22T03:16:19;29.63;;;9.13;;
68386;SDS011;55338;43.062;25.624;2022-12-22T03:19:03;26.00;;;8.27;;
68386;SDS011;55338;43.062;25.624;2022-12-22T03:21:47;25.58;;;9.25;;
68386;SDS011;55338;43.062;25.624;2022-12-22T03:24:32;25.63;;;8.18;;
68386;SDS011;55338;43.062;25.624;2022-12-22T03:27:16;21.03;;;7.00;;
68386;SDS011;55338;43.062;25.624;2022-12-22T03:29:42;21.63;;;7.75;;
68386;SDS011;55338;43.062;25.624;2022-12-22T03:32:07;27.35;;;8.38;;
68386;SDS011;55338;43.062;25.624;2022-12-22T03:34:33;22.30;;;8.10;;
68386;SDS011;55338;43.062;25.624;2022-12-22T03:36:59;25.38;;;8.32;;
68386;SDS011;55338;43.062;25.624;2022-12-22T03:39:24;24.70;;;8.32;;
68386;SDS011;55338;43.062;25.624;2022-12-22T03:41:50;23.00;;;7.40;;
68386;SDS011;55338;43.062;25.624;2022-12-22T03:44:45;21.38;;;7.50;;
68386;SDS011;55338;43.062;25.624;2022-12-22T03:47:30;22.48;;;7.05;;
68386;SDS011;55338;43.062;25.624;2022-12-22T03:49:56;24.38;;;8.57;;
68386;SDS011;55338;43.062;25.624;2022-12-22T03:52:22;25.37;;;8.83;;
68386;SDS011;55338;43.062;25.624;2022-12-22T03:54:47;23.67;;;8.80;;
68386;SDS011;55338;43.062;25.624;2022-12-22T03:57:13;25.87;;;9.10;;
68386;SDS011;55338;43.062;25.624;2022-12-22T03:59:39;28.65;;;9.65;;
68386;SDS011;55338;43.062;25.624;2022-12-22T04:02:05;25.60;;;8.67;;
68386;SDS011;55338;43.062;25.624;2022-12-22T04:04:31;26.60;;;9.30;;
68386;SDS011;55338;43.062;25.624;2022-12-22T04:06:57;26.48;;;9.38;;
68386;SDS011;55338;43.062;25.624;2022-12-22T04:09:23;28.65;;;10.27;;
68386;SDS011;55338;43.062;25.624;2022-12-22T04:11:51;24.83;;;9.03;;
68386;SDS011;55338;43.062;25.624;2022-12-22T04:14:35;27.80;;;9.18;;
68386;SDS011;55338;43.062;25.624;2022-12-22T04:17:02;28.08;;;10.27;;
68386;SDS011;55338;43.062;25.624;2022-12-22T04:19:29;27.60;;;9.85;;
68386;SDS011;55338;43.062;25.624;2022-12-22T04:21:54;27.08;;;8.50;;
68386;SDS011;55338;43.062;25.624;2022-12-22T04:24:20;24.17;;;8.67;;
68386;SDS011;55338;43.062;25.624;2022-12-22T04:26:46;28.20;;;9.35;;
68386;SDS011;55338;43.062;25.624;2022-12-22T04:29:12;26.93;;;9.67;;
68386;SDS011;55338;43.062;25.624;2022-12-22T04:31:37;23.83;;;9.25;;
68386;SDS011;55338;43.062;25.624;2022-12-22T04:34:03;23.90;;;8.37;;
68386;SDS011;55338;43.062;25.624;2022-12-22T04:36:29;23.58;;;8.05;;
68386;SDS011;55338;43.062;25.624;2022-12-22T04:38:55;27.67;;;9.43;;
68386;SDS011;55338;43.062;25.624;2022-12-22T04:41:21;20.40;;;8.95;;
68386;SDS011;55338;43.062;25.624;2022-12-22T04:43:46;25.97;;;8.77;;
68386;SDS011;55338;43.062;25.624;2022-12-22T04:46:12;28.88;;;9.68;;
68386;SDS011;55338;43.062;25.624;2022-12-22T04:48:38;21.37;;;8.00;;
68386;SDS011;55338;43.062;25.624;2022-12-22T04:51:04;25.05;;;8.85;;
68386;SDS011;55338;43.062;25.624;2022-12-22T04:53:30;23.83;;;9.00;;
68386;SDS011;55338;43.062;25.624;2022-12-22T04:55:57;25.00;;;9.20;;
68386;SDS011;55338;43.062;25.624;2022-12-22T04:58:24;26.63;;;9.13;;
68386;SDS011;55338;43.062;25.624;2022-12-22T05:00:50;24.60;;;9.43;;
68386;SDS011;55338;43.062;25.624;2022-12-22T05:03:16;22.08;;;8.40;;
68386;SDS011;55338;43.062;25.624;2022-12-22T05:05:41;26.37;;;9.23;;
68386;SDS011;55338;43.062;25.624;2022-12-22T05:08:07;24.90;;;9.75;;
68386;SDS011;55338;43.062;25.624;2022-12-22T05:10:33;30.27;;;9.20;;
68386;SDS011;55338;43.062;25.624;2022-12-22T05:12:59;24.75;;;8.80;;
68386;SDS011;55338;43.062;25.624;2022-12-22T05:15:27;29.73;;;9.65;;
68386;SDS011;55338;43.062;25.624;2022-12-22T05:17:55;24.97;;;8.73;;
68386;SDS011;55338;43.062;25.624;2022-12-22T05:20:21;25.58;;;8.65;;
68386;SDS011;55338;43.062;25.624;2022-12-22T05:22:47;27.40;;;9.90;;
68386;SDS011;55338;43.062;25.624;2022-12-22T05:25:13;29.95;;;10.52;;
68386;SDS011;55338;43.062;25.624;2022-12-22T05:27:43;28.40;;;9.70;;
68386;SDS011;55338;43.062;25.624;2022-12-22T05:30:11;26.15;;;9.23;;
68386;SDS011;55338;43.062;25.624;2022-12-22T05:32:38;27.02;;;9.38;;
68386;SDS011;55338;43.062;25.624;2022-12-22T05:35:04;30.02;;;10.75;;
68386;SDS011;55338;43.062;25.624;2022-12-22T05:37:30;24.80;;;9.60;;
68386;SDS011;55338;43.062;25.624;2022-12-22T05:39:56;27.90;;;9.75;;
68386;SDS011;55338;43.062;25.624;2022-12-22T05:42:22;28.25;;;9.77;;
68386;SDS011;55338;43.062;25.624;2022-12-22T05:45:18;27.90;;;9.27;;
68386;SDS011;55338;43.062;25.624;2022-12-22T05:47:48;28.75;;;9.60;;
68386;SDS011;55338;43.062;25.624;2022-12-22T05:50:17;28.33;;;10.00;;
68386;SDS011;55338;43.062;25.624;2022-12-22T05:52:47;34.17;;;13.00;;
68386;SDS011;55338;43.062;25.624;2022-12-22T05:55:13;37.90;;;10.98;;
68386;SDS011;55338;43.062;25.624;2022-12-22T05:57:40;42.10;;;15.37;;
68386;SDS011;55338;43.062;25.624;2022-12-22T06:00:07;29.60;;;11.75;;
68386;SDS011;55338;43.062;25.624;2022-12-22T06:02:41;39.50;;;13.38;;
68386;SDS011;55338;43.062;25.624;2022-12-22T06:05:08;31.02;;;12.02;;
68386;SDS011;55338;43.062;25.624;2022-12-22T06:07:36;26.30;;;9.25;;
68386;SDS011;55338;43.062;25.624;2022-12-22T06:10:03;32.13;;;10.20;;
68386;SDS011;55338;43.062;25.624;2022-12-22T06:12:32;28.50;;;10.48;;
68386;SDS011;55338;43.062;25.624;2022-12-22T06:14:58;33.15;;;9.95;;
68386;SDS011;55338;43.062;25.624;2022-12-22T06:17:24;24.60;;;10.02;;
68386;SDS011;55338;43.062;25.624;2022-12-22T06:19:50;32.63;;;11.93;;
68386;SDS011;55338;43.062;25.624;2022-12-22T06:22:16;26.85;;;10.82;;
68386;SDS011;55338;43.062;25.624;2022-12-22T06:24:41;35.57;;;10.80;;
68386;SDS011;55338;43.062;25.624;2022-12-22T06:27:07;30.90;;;10.38;;
68386;SDS011;55338;43.062;25.624;2022-12-22T06:29:35;30.58;;;9.65;;
68386;SDS011;55338;43.062;25.624;2022-12-22T06:32:01;29.17;;;9.50;;
68386;SDS011;55338;43.062;25.624;2022-12-22T06:34:27;30.17;;;10.20;;
68386;SDS011;55338;43.062;25.624;2022-12-22T06:36:53;30.30;;;9.55;;
68386;SDS011;55338;43.062;25.624;2022-12-22T06:39:19;26.40;;;9.57;;
68386;SDS011;55338;43.062;25.624;2022-12-22T06:41:45;33.97;;;10.63;;
68386;SDS011;55338;43.062;25.624;2022-12-22T06:44:29;24.40;;;8.50;;
68386;SDS011;55338;43.062;25.624;2022-12-22T06:46:55;29.13;;;9.88;;
68386;SDS011;55338;43.062;25.624;2022-12-22T06:49:21;28.57;;;9.63;;
68386;SDS011;55338;43.062;25.624;2022-12-22T06:51:47;31.15;;;11.25;;
68386;SDS011;55338;43.062;25.624;2022-12-22T06:54:13;28.67;;;10.88;;
68386;SDS011;55338;43.062;25.624;2022-12-22T06:56:39;28.20;;;11.45;;
68386;SDS011;55338;43.062;25.624;2022-12-22T06:59:05;25.57;;;10.70;;
68386;SDS011;55338;43.062;25.624;2022-12-22T07:01:31;33.05;;;11.30;;
68386;SDS011;55338;43.062;25.624;2022-12-22T07:03:57;32.00;;;11.02;;
68386;SDS011;55338;43.062;25.624;2022-12-22T07:06:23;35.13;;;11.57;;
68386;SDS011;55338;43.062;25.624;2022-12-22T07:08:49;38.20;;;13.48;;
68386;SDS011;55338;43.062;25.624;2022-12-22T07:11:15;30.75;;;11.23;;
68386;SDS011;55338;43.062;25.624;2022-12-22T07:13:41;25.03;;;9.73;;
68386;SDS011;55338;43.062;25.624;2022-12-22T07:16:07;45.03;;;12.48;;
68386;SDS011;55338;43.062;25.624;2022-12-22T07:18:35;40.25;;;13.45;;
68386;SDS011;55338;43.062;25.624;2022-12-22T07:21:07;35.58;;;12.68;;
68386;SDS011;55338;43.062;25.624;2022-12-22T07:23:46;38.57;;;13.27;;
68386;SDS011;55338;43.062;25.624;2022-12-22T07:26:12;36.40;;;14.95;;
68386;SDS011;55338;43.062;25.624;2022-12-22T07:28:39;37.85;;;14.25;;
68386;SDS011;55338;43.062;25.624;2022-12-22T07:31:06;35.35;;;13.25;;
68386;SDS011;55338;43.062;25.624;2022-12-22T07:33:33;32.03;;;12.82;;
68386;SDS011;55338;43.062;25.624;2022-12-22T07:36:04;36.43;;;12.77;;
68386;SDS011;55338;43.062;25.624;2022-12-22T07:38:33;35.38;;;13.25;;
68386;SDS011;55338;43.062;25.624;2022-12-22T07:41:03;40.13;;;13.73;;
68386;SDS011;55338;43.062;25.624;2022-12-22T07:43:50;41.35;;;14.70;;
68386;SDS011;55338;43.062;25.624;2022-12-22T07:46:17;41.77;;;15.20;;
68386;SDS011;55338;43.062;25.624;2022-12-22T07:48:43;36.90;;;14.32;;
68386;SDS011;55338;43.062;25.624;2022-12-22T07:51:30;42.60;;;14.23;;
68386;SDS011;55338;43.062;25.624;2022-12-22T07:53:57;33.33;;;14.90;;
68386;SDS011;55338;43.062;25.624;2022-12-22T07:56:23;38.08;;;14.18;;
68386;SDS011;55338;43.062;25.624;2022-12-22T07:58:49;38.53;;;14.77;;
68386;SDS011;55338;43.062;25.624;2022-12-22T08:01:15;43.58;;;14.35;;
68386;SDS011;55338;43.062;25.624;2022-12-22T08:03:41;36.50;;;14.57;;
68386;SDS011;55338;43.062;25.624;2022-12-22T08:06:07;34.00;;;13.13;;
68386;SDS011;55338;43.062;25.624;2022-12-22T08:08:33;36.75;;;13.55;;
68386;SDS011;55338;43.062;25.624;2022-12-22T08:11:02;35.90;;;14.83;;
68386;SDS011;55338;43.062;25.624;2022-12-22T08:13:29;32.20;;;12.95;;
68386;SDS011;55338;43.062;25.624;2022-12-22T08:15:55;35.95;;;13.63;;
68386;SDS011;55338;43.062;25.624;2022-12-22T08:18:27;27.95;;;11.73;;
68386;SDS011;55338;43.062;25.624;2022-12-22T08:20:53;30.17;;;11.33;;
68386;SDS011;55338;43.062;25.624;2022-12-22T08:23:19;30.35;;;11.80;;
68386;SDS011;55338;43.062;25.624;2022-12-22T08:25:45;27.57;;;12.17;;
68386;SDS011;55338;43.062;25.624;2022-12-22T08:28:15;30.65;;;12.23;;
68386;SDS011;55338;43.062;25.624;2022-12-22T08:30:42;32.65;;;10.65;;
68386;SDS011;55338;43.062;25.624;2022-12-22T08:33:09;33.03;;;12.85;;
68386;SDS011;55338;43.062;25.624;2022-12-22T08:35:35;37.27;;;14.47;;
68386;SDS011;55338;43.062;25.624;2022-12-22T08:38:00;38.13;;;15.05;;
68386;SDS011;55338;43.062;25.624;2022-12-22T08:40:27;41.92;;;16.38;;
68386;SDS011;55338;43.062;25.624;2022-12-22T08:42:56;50.87;;;19.30;;
68386;SDS011;55338;43.062;25.624;2022-12-22T08:45:27;49.00;;;21.65;;
68386;SDS011;55338;43.062;25.624;2022-12-22T08:47:52;54.60;;;24.08;;
68386;SDS011;55338;43.062;25.624;2022-12-22T08:50:18;59.08;;;24.55;;
68386;SDS011;55338;43.062;25.624;2022-12-22T08:52:44;49.70;;;22.02;;
68386;SDS011;55338;43.062;25.624;2022-12-22T08:55:10;47.58;;;21.75;;
68386;SDS011;55338;43.062;25.624;2022-12-22T08:57:36;56.35;;;23.02;;
68386;SDS011;55338;43.062;25.624;2022-12-22T09:00:03;40.83;;;19.40;;
68386;SDS011;55338;43.062;25.624;2022-12-22T09:02:30;47.25;;;19.90;;
68386;SDS011;55338;43.062;25.624;2022-12-22T09:04:57;41.35;;;19.95;;
68386;SDS011;55338;43.062;25.624;2022-12-22T09:07:25;35.85;;;16.42;;
68386;SDS011;55338;43.062;25.624;2022-12-22T09:09:51;35.17;;;15.45;;
68386;SDS011;55338;43.062;25.624;2022-12-22T09:12:17;33.65;;;16.13;;
68386;SDS011;55338;43.062;25.624;2022-12-22T09:14:43;32.88;;;16.65;;
68386;SDS011;55338;43.062;25.624;2022-12-22T09:17:09;38.38;;;18.50;;
68386;SDS011;55338;43.062;25.624;2022-12-22T09:19:36;41.13;;;19.17;;
68386;SDS011;55338;43.062;25.624;2022-12-22T09:22:02;50.17;;;18.10;;
68386;SDS011;55338;43.062;25.624;2022-12-22T09:24:29;29.90;;;13.60;;
68386;SDS011;55338;43.062;25.624;2022-12-22T09:26:55;31.42;;;14.77;;
68386;SDS011;55338;43.062;25.624;2022-12-22T09:29:20;28.03;;;13.63;;
68386;SDS011;55338;43.062;25.624;2022-12-22T09:31:46;30.48;;;14.32;;
68386;SDS011;55338;43.062;25.624;2022-12-22T09:34:12;36.67;;;16.47;;
68386;SDS011;55338;43.062;25.624;2022-12-22T09:36:38;36.42;;;16.13;;
68386;SDS011;55338;43.062;25.624;2022-12-22T09:39:06;39.70;;;18.80;;
68386;SDS011;55338;43.062;25.624;2022-12-22T09:41:43;32.10;;;15.13;;
68386;SDS011;55338;43.062;25.624;2022-12-22T09:44:25;35.10;;;15.73;;
68386;SDS011;55338;43.062;25.624;2022-12-22T09:46:54;28.20;;;13.73;;
68386;SDS011;55338;43.062;25.624;2022-12-22T09:49:22;27.80;;;13.57;;
68386;SDS011;55338;43.062;25.624;2022-12-22T09:51:53;22.25;;;11.43;;
68386;SDS011;55338;43.062;25.624;2022-12-22T09:54:24;27.93;;;11.60;;
68386;SDS011;55338;43.062;25.624;2022-12-22T09:56:50;25.10;;;11.48;;
68386;SDS011;55338;43.062;25.624;2022-12-22T09:59:17;24.02;;;10.82;;
68386;SDS011;55338;43.062;25.624;2022-12-22T10:07:40;24.08;;;11.18;;
68386;SDS011;55338;43.062;25.624;2022-12-22T10:10:29;23.50;;;11.48;;
68386;SDS011;55338;43.062;25.624;2022-12-22T10:12:55;20.65;;;10.90;;
68386;SDS011;55338;43.062;25.624;2022-12-22T10:15:25;23.48;;;12.07;;
68386;SDS011;55338;43.062;25.624;2022-12-22T10:17:53;23.13;;;12.57;;
68386;SDS011;55338;43.062;25.624;2022-12-22T10:20:38;26.48;;;12.40;;
68386;SDS011;55338;43.062;25.624;2022-12-22T10:23:13;27.20;;;13.07;;
68386;SDS011;55338;43.062;25.624;2022-12-22T10:28:24;28.73;;;15.05;;
68386;SDS011;55338;43.062;25.624;2022-12-22T10:33:40;33.40;;;17.02;;
68386;SDS011;55338;43.062;25.624;2022-12-22T10:36:07;30.25;;;16.35;;
68386;SDS011;55338;43.062;25.624;2022-12-22T10:38:35;31.52;;;17.75;;
68386;SDS011;55338;43.062;25.624;2022-12-22T10:43:51;35.33;;;19.57;;
68386;SDS011;55338;43.062;25.624;2022-12-22T10:46:41;34.30;;;17.30;;
68386;SDS011;55338;43.062;25.624;2022-12-22T10:49:32;35.83;;;17.58;;
68386;SDS011;55338;43.062;25.624;2022-12-22T10:54:36;36.17;;;20.23;;
68386;SDS011;55338;43.062;25.624;2022-12-22T10:57:16;39.73;;;19.77;;
68386;SDS011;55338;43.062;25.624;2022-12-22T11:04:51;42.60;;;22.13;;
68386;SDS011;55338;43.062;25.624;2022-12-22T11:07:17;39.72;;;21.95;;
68386;SDS011;55338;43.062;25.624;2022-12-22T11:09:44;49.38;;;24.75;;
68386;SDS011;55338;43.062;25.624;2022-12-22T11:12:32;43.38;;;24.23;;
68386;SDS011;55338;43.062;25.624;2022-12-22T11:23:06;41.33;;;20.23;;
68386;SDS011;55338;43.062;25.624;2022-12-22T11:25:52;35.10;;;19.02;;
68386;SDS011;55338;43.062;25.624;2022-12-22T11:28:32;36.88;;;21.30;;
68386;SDS011;55338;43.062;25.624;2022-12-22T11:39:39;38.85;;;16.50;;
68386;SDS011;55338;43.062;25.624;2022-12-22T11:42:17;48.25;;;17.27;;
68386;SDS011;55338;43.062;25.624;2022-12-22T11:48:14;29.27;;;13.77;;
68386;SDS011;55338;43.062;25.624;2022-12-22T11:50:49;22.60;;;12.43;;
68386;SDS011;55338;43.062;25.624;2022-12-22T12:04:41;25.70;;;12.52;;
68386;SDS011;55338;43.062;25.624;2022-12-22T12:14:56;33.92;;;17.67;;
68386;SDS011;55338;43.062;25.624;2022-12-22T12:18:06;33.88;;;20.13;;
68386;SDS011;55338;43.062;25.624;2022-12-22T12:21:01;36.40;;;15.90;;
68386;SDS011;55338;43.062;25.624;2022-12-22T12:31:40;19.08;;;10.45;;
68386;SDS011;55338;43.062;25.624;2022-12-22T12:34:10;21.27;;;10.88;;
68386;SDS011;55338;43.062;25.624;2022-12-22T12:44:52;22.42;;;10.85;;
68386;SDS011;55338;43.062;25.624;2022-12-22T12:57:53;19.73;;;9.80;;
68386;SDS011;55338;43.062;25.624;2022-12-22T13:08:29;20.77;;;10.55;;
68386;SDS011;55338;43.062;25.624;2022-12-22T13:21:00;21.10;;;9.23;;
68386;SDS011;55338;43.062;25.624;2022-12-22T13:23:42;15.48;;;8.25;;
68386;SDS011;55338;43.062;25.624;2022-12-22T13:26:17;15.57;;;8.80;;
68386;SDS011;55338;43.062;25.624;2022-12-22T13:28:53;22.30;;;8.80;;
68386;SDS011;55338;43.062;25.624;2022-12-22T13:31:42;17.40;;;8.73;;
68386;SDS011;55338;43.062;25.624;2022-12-22T13:34:40;15.20;;;7.78;;
68386;SDS011;55338;43.062;25.624;2022-12-22T13:48:11;14.75;;;7.32;;
68386;SDS011;55338;43.062;25.624;2022-12-22T13:50:45;15.98;;;6.85;;
68386;SDS011;55338;43.062;25.624;2022-12-22T13:53:30;18.65;;;7.13;;
68386;SDS011;55338;43.062;25.624;2022-12-22T13:55:57;13.63;;;6.70;;
68386;SDS011;55338;43.062;25.624;2022-12-22T13:58:24;17.45;;;7.45;;
68386;SDS011;55338;43.062;25.624;2022-12-22T14:00:59;15.10;;;7.40;;
68386;SDS011;55338;43.062;25.624;2022-12-22T14:03:37;13.57;;;6.47;;
68386;SDS011;55338;43.062;25.624;2022-12-22T14:06:26;15.38;;;7.22;;
68386;SDS011;55338;43.062;25.624;2022-12-22T14:09:10;15.83;;;6.93;;
68386;SDS011;55338;43.062;25.624;2022-12-22T14:11:36;14.50;;;6.43;;
68386;SDS011;55338;43.062;25.624;2022-12-22T14:14:09;13.68;;;5.78;;
68386;SDS011;55338;43.062;25.624;2022-12-22T14:16:41;15.68;;;7.03;;
68386;SDS011;55338;43.062;25.624;2022-12-22T14:19:12;25.20;;;8.68;;
68386;SDS011;55338;43.062;25.624;2022-12-22T14:21:40;34.10;;;9.32;;
68386;SDS011;55338;43.062;25.624;2022-12-22T14:24:15;22.90;;;7.95;;
68386;SDS011;55338;43.062;25.624;2022-12-22T14:26:44;25.52;;;10.18;;
68386;SDS011;55338;43.062;25.624;2022-12-22T14:29:13;28.48;;;7.43;;
68386;SDS011;55338;43.062;25.624;2022-12-22T14:31:54;20.05;;;6.95;;
68386;SDS011;55338;43.062;25.624;2022-12-22T14:34:32;15.90;;;6.30;;
68386;SDS011;55338;43.062;25.624;2022-12-22T14:36:59;18.88;;;7.20;;
68386;SDS011;55338;43.062;25.624;2022-12-22T14:39:26;21.23;;;7.50;;
68386;SDS011;55338;43.062;25.624;2022-12-22T14:41:57;20.70;;;7.28;;
68386;SDS011;55338;43.062;25.624;2022-12-22T14:44:29;20.23;;;7.13;;
68386;SDS011;55338;43.062;25.624;2022-12-22T14:47:05;17.00;;;6.88;;
68386;SDS011;55338;43.062;25.624;2022-12-22T14:49:45;16.30;;;6.63;;
68386;SDS011;55338;43.062;25.624;2022-12-22T14:55:04;14.43;;;7.28;;
68386;SDS011;55338;43.062;25.624;2022-12-22T14:57:34;23.60;;;7.35;;
68386;SDS011;55338;43.062;25.624;2022-12-22T15:00:26;15.18;;;5.72;;
68386;SDS011;55338;43.062;25.624;2022-12-22T15:03:04;13.35;;;6.50;;
68386;SDS011;55338;43.062;25.624;2022-12-22T15:05:49;15.73;;;6.43;;
68386;SDS011;55338;43.062;25.624;2022-12-22T15:08:34;18.25;;;7.35;;
68386;SDS011;55338;43.062;25.624;2022-12-22T15:11:00;12.77;;;6.17;;
68386;SDS011;55338;43.062;25.624;2022-12-22T15:13:26;15.48;;;6.15;;
68386;SDS011;55338;43.062;25.624;2022-12-22T15:15:54;13.38;;;6.15;;
68386;SDS011;55338;43.062;25.624;2022-12-22T15:18:21;16.80;;;7.20;;
68386;SDS011;55338;43.062;25.624;2022-12-22T15:20:49;34.15;;;10.23;;
68386;SDS011;55338;43.062;25.624;2022-12-22T15:23:15;28.48;;;8.25;;
68386;SDS011;55338;43.062;25.624;2022-12-22T15:25:41;25.73;;;7.77;;
68386;SDS011;55338;43.062;25.624;2022-12-22T15:28:07;15.30;;;6.70;;
68386;SDS011;55338;43.062;25.624;2022-12-22T15:30:33;20.52;;;6.93;;
68386;SDS011;55338;43.062;25.624;2022-12-22T15:32:59;17.17;;;6.28;;
68386;SDS011;55338;43.062;25.624;2022-12-22T15:35:32;15.73;;;7.60;;
68386;SDS011;55338;43.062;25.624;2022-12-22T15:37:59;21.33;;;6.47;;
68386;SDS011;55338;43.062;25.624;2022-12-22T15:40:26;17.65;;;7.25;;
68386;SDS011;55338;43.062;25.624;2022-12-22T15:42:53;17.58;;;6.85;;
68386;SDS011;55338;43.062;25.624;2022-12-22T15:45:19;15.40;;;6.70;;
68386;SDS011;55338;43.062;25.624;2022-12-22T15:47:47;14.52;;;6.65;;
68386;SDS011;55338;43.062;25.624;2022-12-22T15:50:22;47.08;;;11.00;;
68386;SDS011;55338;43.062;25.624;2022-12-22T15:52:53;26.23;;;8.30;;
68386;SDS011;55338;43.062;25.624;2022-12-22T15:55:22;36.50;;;8.05;;
68386;SDS011;55338;43.062;25.624;2022-12-22T15:57:49;20.87;;;6.87;;
68386;SDS011;55338;43.062;25.624;2022-12-22T16:00:17;27.75;;;7.05;;
68386;SDS011;55338;43.062;25.624;2022-12-22T16:02:44;22.00;;;7.70;;
68386;SDS011;55338;43.062;25.624;2022-12-22T16:05:10;18.60;;;7.68;;
68386;SDS011;55338;43.062;25.624;2022-12-22T16:07:36;22.08;;;8.63;;
68386;SDS011;55338;43.062;25.624;2022-12-22T16:10:05;20.98;;;8.48;;
68386;SDS011;55338;43.062;25.624;2022-12-22T16:12:32;20.25;;;9.30;;
68386;SDS011;55338;43.062;25.624;2022-12-22T16:15:01;25.17;;;9.02;;
68386;SDS011;55338;43.062;25.624;2022-12-22T16:17:28;18.97;;;8.33;;
68386;SDS011;55338;43.062;25.624;2022-12-22T16:19:54;22.10;;;8.15;;
68386;SDS011;55338;43.062;25.624;2022-12-22T16:22:20;20.63;;;8.98;;
68386;SDS011;55338;43.062;25.624;2022-12-22T16:24:53;26.58;;;9.07;;
68386;SDS011;55338;43.062;25.624;2022-12-22T16:27:19;27.03;;;10.00;;
68386;SDS011;55338;43.062;25.624;2022-12-22T16:29:48;32.40;;;9.98;;
68386;SDS011;55338;43.062;25.624;2022-12-22T16:32:27;32.88;;;10.20;;
68386;SDS011;55338;43.062;25.624;2022-12-22T16:34:58;76.95;;;13.13;;
68386;SDS011;55338;43.062;25.624;2022-12-22T16:37:33;47.47;;;10.65;;
68386;SDS011;55338;43.062;25.624;2022-12-22T16:39:59;42.20;;;10.10;;
68386;SDS011;55338;43.062;25.624;2022-12-22T16:42:25;42.40;;;9.77;;
68386;SDS011;55338;43.062;25.624;2022-12-22T16:44:51;35.03;;;8.73;;
68386;SDS011;55338;43.062;25.624;2022-12-22T16:47:21;37.10;;;9.38;;
68386;SDS011;55338;43.062;25.624;2022-12-22T16:49:51;36.28;;;9.88;;
68386;SDS011;55338;43.062;25.624;2022-12-22T16:52:21;44.28;;;10.00;;
68386;SDS011;55338;43.062;25.624;2022-12-22T16:55:19;36.77;;;8.50;;
68386;SDS011;55338;43.062;25.624;2022-12-22T16:57:46;25.45;;;8.07;;
68386;SDS011;55338;43.062;25.624;2022-12-22T17:00:12;42.95;;;9.50;;
68386;SDS011;55338;43.062;25.624;2022-12-22T17:02:51;26.65;;;9.73;;
68386;SDS011;55338;43.062;25.624;2022-12-22T17:05:31;35.15;;;9.52;;
68386;SDS011;55338;43.062;25.624;2022-12-22T17:08:04;31.43;;;8.27;;
68386;SDS011;55338;43.062;25.624;2022-12-22T17:10:33;39.60;;;9.30;;